Time;durP1;ratioP1;P1;durP2;ratioP2;P2;SDS_P1;SDS_P2;PMS_P1;PMS_P2;Temp;Humidity;BMP_temperature;BMP_pressure;BME280_temperature;BME280_humidity;BME280_pressure;Samples;Min_cycle;Max_cycle;Signal;HPM_P1;HPM_P2
2023/03/03 00:04:38;;;;;;;55.78;27.05;;;;;;;3.36;100.00;97902.28;10206613;28;20117;-48
2023/03/03 00:09:37;;;;;;;;;;;;;;;3.58;99.82;97891.81;10207818;28;20089;-47
2023/03/03 00:14:36;;;;;;;59.78;27.75;;;;;;;3.39;100.00;97889.56;10207578;28;19925;-50
2023/03/03 00:19:40;;;;;;;60.47;24.15;;;;;;;2.77;100.00;97805.69;10209197;28;20033;-50
2023/03/03 00:24:39;;;;;;;71.82;31.10;;;;;;;3.11;100.00;97880.16;10207087;28;20464;-48
2023/03/03 00:29:46;;;;;;;74.20;31.00;;;;;;;3.26;100.00;97880.63;10247020;28;20492;-49
2023/03/03 00:34:46;;;;;;;77.50;32.90;;;;;;;3.25;100.00;97866.06;10247431;28;20058;-48
2023/03/03 00:39:45;;;;;;;69.50;28.58;;;;;;;3.37;100.00;97866.41;10212370;28;20058;-47
2023/03/03 00:44:55;;;;;;;65.18;27.25;;;;;;;3.26;100.00;97855.00;10207433;28;20050;-50
2023/03/03 00:49:58;;;;;;;64.55;27.23;;;;;;;3.40;100.00;97851.13;10207645;28;20062;-48
2023/03/03 00:54:58;;;;;;;55.78;25.13;;;;;;;3.51;100.00;97837.72;10206116;28;20054;-49
2023/03/03 00:59:57;;;;;;;53.60;24.38;;;;;;;3.05;100.00;97754.34;10205956;28;20118;-50
2023/03/03 01:04:56;;;;;;;50.53;24.38;;;;;;;3.47;100.00;97831.63;10206885;28;20070;-48
2023/03/03 01:09:55;;;;;;;52.65;24.15;;;;;;;3.64;99.94;97832.13;10205902;28;20033;-49
2023/03/03 01:14:55;;;;;;;53.15;26.20;;;;;;;3.65;99.46;97824.44;10205228;28;20397;-48
2023/03/03 01:19:53;;;;;;;51.17;24.08;;;;;;;3.56;98.90;97779.69;10244766;28;20113;-50
2023/03/03 01:24:52;;;;;;;49.13;23.75;;;;;;;3.68;98.86;97823.66;10244816;28;20125;-48
2023/03/03 01:29:51;;;;;;;50.85;26.50;;;;;;;3.78;98.91;97812.81;10244464;28;20069;-48
2023/03/03 01:34:50;;;;;;;53.30;25.88;;;;;;;3.51;98.60;97759.06;10203819;28;20121;-48
2023/03/03 01:39:51;;;;;;;59.25;29.75;;;;;;;3.68;99.17;97808.25;10238441;28;20042;-48
2023/03/03 01:45:11;;;;;;;64.93;26.48;;;;;;;3.42;99.73;97808.44;10242088;28;20069;-50
2023/03/03 01:50:13;;;;;;;107.15;47.95;;;;;;;3.37;99.76;97816.81;10218174;28;20073;-47
2023/03/03 01:55:22;;;;;;;105.22;46.85;;;;;;;3.60;99.93;97805.50;10243155;28;20061;-48
2023/03/03 02:00:21;;;;;;;65.17;27.53;;;;;;;3.46;99.54;97803.38;10243371;28;20125;-49
2023/03/03 02:05:20;;;;;;;;;;;;;;;3.52;99.87;97808.66;10244489;28;20069;-48
2023/03/03 02:10:20;;;;;;;66.43;27.95;;;;;;;3.29;100.00;97816.59;10243053;28;19960;-48
2023/03/03 02:15:31;;;;;;;73.70;30.60;;;;;;;3.11;100.00;97800.69;10242918;28;20066;-49
2023/03/03 02:20:48;;;;;;;68.35;28.15;;;;;;;3.19;100.00;97802.66;10242658;28;20061;-49
2023/03/03 02:25:56;;;;;;;72.63;29.95;;;;;;;3.13;100.00;97807.59;10243149;28;20065;-49
2023/03/03 02:30:57;;;;;;;68.22;28.50;;;;;;;3.28;100.00;97799.47;10203030;28;20070;-50
2023/03/03 02:35:56;;;;;;;69.75;28.30;;;;;;;3.18;100.00;97775.25;10206061;28;20478;-49
2023/03/03 02:41:04;;;;;;;80.20;30.70;;;;;;;3.32;100.00;97796.16;10242459;28;20455;-50
2023/03/03 02:46:03;;;;;;;78.97;28.95;;;;;;;3.17;100.00;97782.94;10209131;28;20093;-50
2023/03/03 02:51:01;;;;;;;78.13;32.28;;;;;;;3.29;100.00;97795.22;10216954;28;20062;-48
2023/03/03 02:56:00;;;;;;;82.05;32.05;;;;;;;3.15;100.00;97797.41;10210884;28;20060;-49
2023/03/03 03:00:59;;;;;;;81.07;31.02;;;;;;;3.11;100.00;97793.84;10210095;28;20027;-50
2023/03/03 03:05:58;;;;;;;82.82;31.38;;;;;;;3.24;100.00;97795.09;10209872;28;20404;-50
2023/03/03 03:10:57;;;;;;;84.28;31.05;;;;;;;3.32;100.00;97785.91;10210040;28;20022;-49
2023/03/03 03:15:57;;;;;;;64.18;27.30;;;;;;;3.15;100.00;97788.00;10210114;28;20121;-50
2023/03/03 03:20:56;;;;;;;71.40;30.48;;;;;;;3.23;100.00;97785.63;10208783;28;20126;-48
2023/03/03 03:25:55;;;;;;;72.82;33.85;;;;;;;3.38;100.00;97786.09;10208820;28;20027;-50
2023/03/03 03:30:54;;;;;;;66.25;28.50;;;;;;;3.27;100.00;97779.78;10208826;28;20117;-48
2023/03/03 03:35:54;;;;;;;87.50;35.50;;;;;;;3.30;100.00;97781.56;10212059;28;20065;-48
2023/03/03 03:40:53;;;;;;;112.95;48.10;;;;;;;3.26;100.00;97775.50;10248930;28;20113;-51
2023/03/03 03:45:52;;;;;;;;;;;;;;;3.19;100.00;97774.44;10248382;28;20117;-48
2023/03/03 03:50:51;;;;;;;87.05;30.80;;;;;;;3.24;100.00;97774.56;10216117;28;19920;-49
2023/03/03 03:55:50;;;;;;;86.40;33.30;;;;;;;2.95;100.00;97740.41;10206715;28;20070;-48
2023/03/03 04:00:49;;;;;;;;;;;;;;;3.17;100.00;97759.84;10208764;28;20130;-48
2023/03/03 04:05:51;;;;;;;91.20;30.38;;;;;;;3.13;100.00;97755.44;10212287;28;19992;-48
2023/03/03 04:10:50;;;;;;;86.13;32.55;;;;;;;2.75;100.00;97688.59;10218893;28;20178;-50
2023/03/03 04:15:48;;;;;;;96.10;35.70;;;;;;;3.12;100.00;97748.56;10221750;28;20050;-48
2023/03/03 04:20:48;;;;;;;84.55;29.75;;;;;;;3.00;100.00;97752.53;10221258;28;20048;-49
2023/03/03 04:25:48;;;;;;;85.32;29.95;;;;;;;3.08;100.00;97757.03;10222829;28;20121;-49
2023/03/03 04:30:47;;;;;;;86.10;33.45;;;;;;;3.23;100.00;97750.59;10218756;28;20807;-50
2023/03/03 04:35:46;;;;;;;88.43;30.48;;;;;;;3.22;100.00;97740.31;10215257;28;20030;-49
2023/03/03 04:40:45;;;;;;;69.63;27.77;;;;;;;3.38;100.00;97746.75;10214369;28;20582;-48
2023/03/03 04:45:44;;;;;;;81.63;30.08;;;;;;;3.33;100.00;97741.50;10215201;28;20043;-48
2023/03/03 04:50:43;;;;;;;77.22;30.00;;;;;;;2.78;100.00;97645.09;10228148;28;20488;-49
2023/03/03 04:55:42;;;;;;;87.75;33.42;;;;;;;3.27;100.00;97697.72;10214116;28;20041;-48
2023/03/03 05:00:41;;;;;;;;;;;;;;;3.63;100.00;97745.69;10215620;28;20119;-50
2023/03/03 05:05:40;;;;;;;73.43;31.10;;;;;;;3.37;100.00;97691.13;10211658;28;20000;-49
2023/03/03 05:10:39;;;;;;;;;;;;;;;3.74;100.00;97738.28;10217854;28;20134;-48
2023/03/03 05:15:38;;;;;;;102.73;36.03;;;;;;;3.85;99.76;97750.53;10213867;28;20036;-49
2023/03/03 05:20:39;;;;;;;77.40;30.50;;;;;;;3.68;99.71;97749.22;10212738;28;20057;-48
2023/03/03 05:25:41;;;;;;;87.80;30.30;;;;;;;3.60;99.53;97746.47;10208797;28;20145;-50
2023/03/03 05:30:40;;;;;;;75.30;35.78;;;;;;;3.63;100.00;97746.53;10209591;28;20069;-47
2023/03/03 05:35:39;;;;;;;94.20;34.60;;;;;;;3.66;99.82;97743.22;10212193;28;20041;-47
2023/03/03 05:40:38;;;;;;;;;;;;;;;3.63;99.80;97758.50;10203007;28;20070;-49
2023/03/03 05:45:37;;;;;;;73.65;30.38;;;;;;;3.61;100.00;97748.22;10209824;28;19913;-50
2023/03/03 05:50:36;;;;;;;78.57;32.30;;;;;;;3.66;99.95;97753.47;10204457;28;20029;-50
2023/03/03 05:55:36;;;;;;;86.40;35.50;;;;;;;3.77;100.00;97758.88;10207813;28;20130;-47
2023/03/03 06:00:34;;;;;;;88.95;33.42;;;;;;;3.78;100.00;97761.50;10210258;28;20125;-55
2023/03/03 06:05:33;;;;;;;76.18;31.25;;;;;;;3.73;100.00;97751.91;10201527;28;20040;-48
2023/03/03 06:10:32;;;;;;;81.03;27.65;;;;;;;3.80;100.00;97758.94;10210060;28;20042;-48
2023/03/03 06:15:31;;;;;;;93.70;34.17;;;;;;;3.95;99.81;97759.34;10201529;28;20146;-49
2023/03/03 06:20:31;;;;;;;89.70;34.30;;;;;;;3.95;100.00;97768.75;10218346;28;20048;-48
2023/03/03 06:25:31;;;;;;;67.03;25.25;;;;;;;3.89;99.81;97766.00;10202894;28;20070;-48
2023/03/03 06:30:29;;;;;;;67.25;30.95;;;;;;;4.00;99.71;97764.59;10207160;28;20469;-48
2023/03/03 06:35:28;;;;;;;59.03;21.83;;;;;;;4.03;99.72;97760.41;10201959;28;20473;-49
2023/03/03 06:40:28;;;;;;;55.45;24.00;;;;;;;4.00;99.57;97759.47;10214074;28;20054;-47
2023/03/03 06:45:26;;;;;;;;;;;;;;;4.16;100.00;97771.84;10207228;28;20070;-47
2023/03/03 06:50:25;;;;;;;57.80;25.13;;;;;;;4.12;98.71;97752.06;10210981;28;19921;-47
2023/03/03 06:55:24;;;;;;;65.10;29.35;;;;;;;4.17;99.40;97765.00;10206337;28;20054;-47
2023/03/03 07:00:25;;;;;;;51.47;23.52;;;;;;;4.26;99.82;97770.38;10215124;28;20035;-50
2023/03/03 07:05:27;;;;;;;50.78;23.35;;;;;;;3.60;99.74;97627.59;10207370;28;20089;-47
2023/03/03 07:10:29;;;;;;;47.25;22.45;;;;;;;4.44;99.03;97767.38;10201849;28;20066;-48
2023/03/03 07:15:33;;;;;;;52.40;24.00;;;;;;;4.56;98.98;97765.06;10206029;28;20074;-48
2023/03/03 07:20:37;;;;;;;43.90;20.52;;;;;;;4.67;99.28;97761.06;10205728;28;20729;-48
2023/03/03 07:25:36;;;;;;;45.03;22.88;;;;;;;4.71;99.85;97756.84;10209903;28;20063;-47
2023/03/03 07:30:35;;;;;;;;;;;;;;;4.79;97.26;97764.75;10216999;28;20564;-48
2023/03/03 07:35:38;;;;;;;52.55;28.23;;;;;;;4.75;98.03;97744.94;10213841;28;20328;-50
2023/03/03 07:40:40;;;;;;;38.90;19.77;;;;;;;4.79;97.94;97747.59;10223256;28;20560;-49
2023/03/03 07:45:39;;;;;;;36.03;19.65;;;;;;;4.59;98.17;97692.31;10225283;28;20097;-48
2023/03/03 07:50:39;;;;;;;40.65;24.27;;;;;;;4.97;96.86;97726.59;10213786;28;20046;-47
2023/03/03 07:55:39;;;;;;;34.17;18.13;;;;;;;5.12;96.39;97737.19;10217493;28;20122;-49
2023/03/03 08:00:38;;;;;;;35.42;19.70;;;;;;;5.27;98.67;97735.75;10208642;28;20062;-50
2023/03/03 08:05:40;;;;;;;30.08;16.75;;;;;;;5.45;96.96;97730.09;10212793;28;20578;-49
2023/03/03 08:10:42;;;;;;;30.58;18.10;;;;;;;5.38;94.60;97729.09;10223706;28;20121;-49
2023/03/03 08:15:41;;;;;;;30.40;17.02;;;;;;;5.33;92.89;97730.72;10208979;28;20108;-49
2023/03/03 08:20:43;;;;;;;;;;;;;;;5.43;95.49;97721.47;10206327;28;20659;-48
2023/03/03 08:25:42;;;;;;;26.48;15.98;;;;;;;5.36;94.22;97704.19;10218463;28;19957;-48
2023/03/03 08:30:42;;;;;;;28.63;17.67;;;;;;;5.49;94.43;97716.44;10219108;28;20468;-48
2023/03/03 08:35:42;;;;;;;24.92;15.48;;;;;;;5.61;93.93;97700.34;10213402;28;20072;-50
2023/03/03 08:40:42;;;;;;;26.25;15.77;;;;;;;5.72;95.31;97704.84;10214944;28;20066;-48
2023/03/03 08:45:41;;;;;;;48.80;26.48;;;;;;;5.89;93.54;97696.53;10210510;28;20526;-48
2023/03/03 08:50:40;;;;;;;36.20;20.23;;;;;;;5.89;95.35;97679.38;10208572;28;20481;-49
2023/03/03 08:55:39;;;;;;;;;;;;;;;6.26;96.57;97707.41;10211158;28;20074;-48
2023/03/03 09:00:38;;;;;;;35.40;22.30;;;;;;;6.25;94.70;97691.09;10218141;28;20005;-48
2023/03/03 09:05:39;;;;;;;31.15;20.83;;;;;;;6.43;95.72;97698.22;10222228;28;20074;-48
2023/03/03 09:10:38;;;;;;;28.88;18.92;;;;;;;6.39;93.72;97699.88;10264951;28;20081;-48
2023/03/03 09:15:37;;;;;;;;;;;;;;;6.47;95.56;97696.56;10121727;28;20503;-51
2023/03/03 09:20:38;;;;;;;30.13;18.43;;;;;;;6.60;91.91;97665.81;10218766;28;20384;-50
2023/03/03 09:25:37;;;;;;;33.05;20.52;;;;;;;6.88;93.70;97667.88;10210129;28;20117;-49
2023/03/03 09:30:39;;;;;;;29.50;20.02;;;;;;;7.15;89.68;97682.84;10212252;28;20035;-51
2023/03/03 09:35:39;;;;;;;24.73;17.02;;;;;;;7.03;91.13;97603.56;10208631;28;20066;-50
2023/03/03 09:41:12;;;;;;;24.95;18.30;;;;;;;7.80;90.82;97684.34;10222724;28;20120;-50
2023/03/03 09:46:38;;;;;;;24.40;15.80;;;;;;;7.79;83.29;97675.75;10209054;28;20484;-51
2023/03/03 09:51:56;;;;;;;21.65;14.60;;;;;;;7.83;85.30;97627.56;10204487;28;20101;-48
2023/03/03 09:57:19;;;;;;;25.17;17.30;;;;;;;8.33;83.16;97677.88;10216469;28;20066;-48
2023/03/03 10:02:42;;;;;;;24.13;15.73;;;;;;;8.42;85.50;97676.22;10243695;28;20459;-50
2023/03/03 10:08:25;;;;;;;25.80;17.08;;;;;;;8.30;79.39;97661.50;10246529;28;20061;-50
2023/03/03 10:13:36;;;;;;;37.78;25.38;;;;;;;8.39;84.73;97660.69;10249516;28;20116;-50
2023/03/03 10:19:17;;;;;;;23.45;16.25;;;;;;;8.22;78.69;97664.88;10263327;28;20113;-50
2023/03/03 10:24:25;;;;;;;;;;;;;;;8.41;82.05;97653.81;10256150;28;20069;-50
2023/03/03 10:29:58;;;;;;;29.23;20.95;;;;;;;8.60;82.70;97653.88;10257586;28;19949;-49
2023/03/03 10:35:32;;;;;;;50.35;30.95;;;;;;;8.77;82.86;97620.38;10247056;28;20575;-51
2023/03/03 10:40:49;;;;;;;40.55;26.60;;;;;;;9.46;82.41;97649.91;10248585;28;20117;-51
2023/03/03 10:46:10;;;;;;;77.80;48.58;;;;;;;10.07;82.39;97638.69;10174413;28;20154;-50
2023/03/03 10:51:17;;;;;;;21.02;15.88;;;;;;;10.38;75.72;97623.13;10224644;28;20067;-49
2023/03/03 10:56:25;;;;;;;21.95;15.75;;;;;;;10.42;77.32;97614.44;10210813;28;20077;-49
2023/03/03 11:01:39;;;;;;;20.67;15.30;;;;;;;10.00;73.61;97616.25;10208909;28;20475;-51
2023/03/03 11:06:58;;;;;;;24.88;17.33;;;;;;;10.17;78.90;97587.72;10207452;28;20074;-51
2023/03/03 11:12:26;;;;;;;20.60;15.63;;;;;;;10.58;72.58;97610.06;10223013;28;20090;-49
2023/03/03 11:17:42;;;;;;;21.08;15.65;;;;;;;10.51;73.59;97601.44;10224202;28;20073;-50
2023/03/03 11:22:47;;;;;;;25.48;19.67;;;;;;;9.82;71.32;97601.59;10211666;28;20073;-50
2023/03/03 11:28:05;;;;;;;26.95;20.23;;;;;;;9.96;76.54;97599.00;10212560;28;20077;-52
2023/03/03 11:33:15;;;;;;;73.75;44.85;;;;;;;9.96;79.05;97599.84;10211288;28;20062;-49
2023/03/03 11:38:25;;;;;;;21.70;17.60;;;;;;;10.06;72.71;97569.59;10209096;28;20117;-48
2023/03/03 11:43:31;;;;;;;48.53;30.52;;;;;;;9.95;76.12;97535.03;10220968;28;20064;-49
2023/03/03 11:49:06;;;;;;;29.30;20.05;;;;;;;10.53;72.81;97581.53;10213395;28;20058;-49
2023/03/03 11:54:29;;;;;;;23.48;17.98;;;;;;;10.22;68.22;97556.59;10220520;28;20113;-49
2023/03/03 11:59:40;;;;;;;220.45;104.10;;;;;;;9.82;73.52;97561.84;10228201;28;21736;-50
2023/03/03 12:04:57;;;;;;;43.67;26.33;;;;;;;9.75;72.93;97561.00;10224748;28;20066;-50
2023/03/03 12:10:12;;;;;;;50.72;27.67;;;;;;;9.78;73.18;97554.06;10226218;28;20586;-52
2023/03/03 12:15:34;;;;;;;26.25;20.02;;;;;;;8.37;76.44;97323.69;10226676;28;20078;-51
2023/03/03 12:21:13;;;;;;;52.38;38.58;;;;;;;9.96;77.60;97560.97;10222962;28;20713;-52
2023/03/03 12:26:19;;;;;;;23.30;18.17;;;;;;;10.23;77.71;97560.91;10232905;28;20050;-50
2023/03/03 12:31:18;;;;;;;26.92;20.88;;;;;;;10.26;71.91;97561.78;10229552;28;20073;-51
2023/03/03 12:36:26;;;;;;;;;;;;;;;10.37;77.38;97565.16;10223047;28;20034;-49
2023/03/03 12:41:54;;;;;;;35.38;24.52;;;;;;;10.25;72.43;97570.41;10218770;28;20012;-50
2023/03/03 12:47:08;;;;;;;21.60;15.52;;;;;;;10.13;69.55;97570.44;10210712;28;20074;-51
2023/03/03 12:52:36;;;;;;;36.78;26.25;;;;;;;10.10;75.52;97560.94;10228581;28;20078;-50
2023/03/03 12:57:53;;;;;;;24.45;18.75;;;;;;;10.27;74.32;97558.28;10217448;28;20121;-48
2023/03/03 13:03:03;;;;;;;30.27;21.73;;;;;;;10.30;76.05;97560.00;10218072;28;20110;-51
2023/03/03 13:08:32;;;;;;;25.63;19.17;;;;;;;10.38;74.32;97560.88;10223062;28;20118;-52
2023/03/03 13:13:46;;;;;;;26.08;19.63;;;;;;;10.45;74.80;97552.19;10215105;28;20074;-51
2023/03/03 13:18:56;;;;;;;29.85;22.15;;;;;;;10.59;73.80;97550.41;10209051;28;20132;-54
2023/03/03 13:24:26;;;;;;;33.55;23.50;;;;;;;10.80;72.64;97545.97;10225531;28;20097;-50
2023/03/03 13:29:34;;;;;;;26.75;20.15;;;;;;;10.83;70.13;97549.41;10218540;28;20101;-52
2023/03/03 13:34:57;;;;;;;31.52;24.40;;;;;;;10.81;72.93;97545.09;10221173;28;20117;-50
2023/03/03 13:40:00;;;;;;;32.58;24.98;;;;;;;10.66;72.57;97545.16;10220265;28;20138;-51
2023/03/03 13:45:02;;;;;;;34.35;26.25;;;;;;;10.53;70.67;97552.16;10213906;28;20138;-51
2023/03/03 13:50:22;;;;;;;21.58;17.13;;;;;;;10.02;69.94;97531.56;10269961;28;20053;-51
2023/03/03 13:55:25;;;;;;;22.02;15.90;;;;;;;9.76;72.32;97547.16;10255315;28;20128;-51
2023/03/03 14:00:46;;;;;;;20.70;14.57;;;;;;;9.17;74.82;97548.84;10213713;28;20146;-50
2023/03/03 14:05:48;;;;;;;21.23;15.65;;;;;;;8.44;78.29;97518.50;10218992;28;20065;-50
2023/03/03 14:11:06;;;;;;;23.83;16.95;;;;;;;8.51;78.72;97549.56;10210915;28;20768;-51
2023/03/03 14:16:15;;;;;;;25.30;17.88;;;;;;;7.94;81.65;97547.53;10221729;28;20153;-51
2023/03/03 14:21:30;;;;;;;27.20;16.00;;;;;;;7.58;83.60;97549.88;10215254;28;20137;-48
2023/03/03 14:26:29;;;;;;;27.95;18.00;;;;;;;7.31;85.12;97558.25;10221848;28;20117;-50
2023/03/03 14:31:37;;;;;;;22.17;14.68;;;;;;;7.32;86.14;97561.69;10219540;28;20556;-51
2023/03/03 14:36:42;;;;;;;24.67;16.25;;;;;;;7.14;86.35;97559.81;10211834;28;20085;-49
2023/03/03 14:41:41;;;;;;;23.27;16.98;;;;;;;7.06;88.13;97554.56;10209986;28;20110;-51
2023/03/03 14:46:40;;;;;;;23.98;15.90;;;;;;;6.95;86.97;97562.19;10214889;28;20118;-51
2023/03/03 14:51:47;;;;;;;31.58;18.95;;;;;;;6.63;88.04;97537.78;10207681;28;20576;-50
2023/03/03 14:56:59;;;;;;;27.23;18.20;;;;;;;6.61;89.48;97550.69;10215119;28;20121;-49
2023/03/03 15:02:17;;;;;;;29.05;20.25;;;;;;;6.55;89.46;97553.16;10199250;28;20526;-50
2023/03/03 15:07:21;;;;;;;28.13;17.65;;;;;;;6.37;89.78;97565.00;10215312;28;20491;-50
2023/03/03 15:12:23;;;;;;;29.83;17.25;;;;;;;6.14;90.93;97563.81;10198410;28;20073;-50
2023/03/03 15:17:22;;;;;;;26.92;16.60;;;;;;;6.09;90.99;97556.03;10214869;28;20587;-49
2023/03/03 15:22:33;;;;;;;27.55;16.15;;;;;;;5.97;91.54;97555.88;10201280;28;20671;-51
2023/03/03 15:27:51;;;;;;;33.08;18.40;;;;;;;6.08;91.75;97569.75;10213873;28;20125;-50
2023/03/03 15:33:02;;;;;;;30.00;18.40;;;;;;;6.09;91.25;97562.88;10210064;28;20110;-50
2023/03/03 15:38:29;;;;;;;36.65;20.70;;;;;;;6.06;92.13;97560.28;10223857;28;20461;-48
2023/03/03 15:43:36;;;;;;;31.27;19.02;;;;;;;6.14;91.78;97556.97;10201669;28;20093;-49
2023/03/03 15:48:46;;;;;;;33.53;19.55;;;;;;;6.09;91.36;97571.47;10212979;28;20125;-51
2023/03/03 15:54:20;;;;;;;37.70;20.73;;;;;;;5.96;91.57;97565.31;10207207;28;20070;-48
2023/03/03 15:59:31;;;;;;;27.10;16.63;;;;;;;5.11;91.08;97457.66;10205244;28;20157;-50
2023/03/03 16:04:34;;;;;;;26.75;16.48;;;;;;;5.90;91.68;97598.69;10215787;28;20480;-51
2023/03/03 16:09:33;;;;;;;23.23;14.57;;;;;;;5.88;91.33;97586.63;10215340;28;20593;-48
2023/03/03 16:14:46;;;;;;;17.55;12.00;;;;;;;5.84;91.55;97577.16;10214728;28;20664;-50
2023/03/03 16:20:02;;;;;;;61.08;34.33;;;;;;;6.19;90.58;97608.56;10213974;28;20062;-49
2023/03/03 16:25:31;;;;;;;12.65;7.88;;;;;;;6.02;90.22;97610.03;10218978;28;20080;-49
2023/03/03 16:30:42;;;;;;;21.75;15.20;;;;;;;5.92;89.58;97627.91;10212136;28;20077;-49
2023/03/03 16:36:02;;;;;;;22.95;14.27;;;;;;;5.81;90.50;97616.56;10218650;28;20318;-48
2023/03/03 16:41:03;;;;;;;;;;;;;;;5.96;90.80;97634.84;10212067;28;20170;-48
2023/03/03 16:46:22;;;;;;;17.92;11.73;;;;;;;5.88;89.87;97648.44;10218203;28;19977;-50
2023/03/03 16:51:29;;;;;;;30.23;18.00;;;;;;;5.95;90.88;97651.16;10212428;28;20575;-51
2023/03/03 16:56:56;;;;;;;22.02;14.32;;;;;;;5.91;89.99;97651.94;10221098;28;20066;-49
2023/03/03 17:02:08;;;;;;;21.75;13.95;;;;;;;5.78;91.13;97655.16;10210083;28;20122;-49
2023/03/03 17:07:40;;;;;;;23.58;15.32;;;;;;;5.93;90.78;97667.41;10225639;28;20078;-50
2023/03/03 17:13:14;;;;;;;23.90;14.32;;;;;;;5.80;90.08;97670.63;10217103;28;20169;-48
2023/03/03 17:18:34;;;;;;;27.95;17.55;;;;;;;5.67;91.02;97649.84;10216930;28;20818;-51
2023/03/03 17:23:52;;;;;;;33.08;22.70;;;;;;;5.46;91.37;97628.88;10205572;28;20066;-48
2023/03/03 17:28:59;;;;;;;24.27;16.55;;;;;;;5.86;90.88;97681.91;10213710;28;20122;-48
2023/03/03 17:34:30;;;;;;;24.13;15.45;;;;;;;5.88;91.09;97689.66;10213199;28;20568;-50
2023/03/03 17:39:55;;;;;;;28.75;17.05;;;;;;;6.08;90.89;97687.41;10210499;28;20500;-54
2023/03/03 17:45:01;;;;;;;24.40;17.25;;;;;;;6.19;90.74;97688.44;10216522;28;20069;-49
2023/03/03 17:50:26;;;;;;;22.50;14.65;;;;;;;6.22;89.92;97680.75;10209062;28;20062;-51
2023/03/03 17:55:59;;;;;;;25.27;16.15;;;;;;;6.31;90.25;97701.50;10211009;28;20062;-51
2023/03/03 18:01:12;;;;;;;26.30;16.73;;;;;;;6.24;89.58;97703.97;10202460;28;20136;-48
2023/03/03 18:06:23;;;;;;;19.23;12.35;;;;;;;6.21;90.07;97699.63;10204759;28;20085;-51
2023/03/03 18:11:40;;;;;;;28.75;16.77;;;;;;;6.22;89.58;97709.09;10198418;28;20122;-52
2023/03/03 18:16:51;;;;;;;26.75;17.05;;;;;;;5.89;89.41;97661.34;10199668;28;20077;-50
2023/03/03 18:22:25;;;;;;;27.17;17.90;;;;;;;6.29;90.00;97712.63;10218229;28;20066;-50
2023/03/03 18:27:30;;;;;;;28.75;18.27;;;;;;;6.36;89.47;97712.75;10213101;28;20089;-50
2023/03/03 18:33:02;;;;;;;26.00;17.88;;;;;;;6.50;89.83;97712.09;10206823;28;20069;-50
2023/03/03 18:38:27;;;;;;;25.80;17.15;;;;;;;6.38;89.05;97672.41;10206426;28;20137;-50
2023/03/03 18:43:38;;;;;;;80.28;48.42;;;;;;;6.70;89.01;97731.28;10208088;28;20065;-50
2023/03/03 18:48:47;;;;;;;87.55;49.40;;;;;;;6.76;88.71;97728.78;10198159;28;20071;-50
2023/03/03 18:54:10;;;;;;;74.22;47.33;;;;;;;6.83;88.35;97733.16;10210556;28;20113;-50
2023/03/03 18:59:10;;;;;;;27.15;18.38;;;;;;;6.87;87.88;97738.38;10200539;28;20110;-49
2023/03/03 19:04:18;;;;;;;45.95;30.67;;;;;;;6.87;86.83;97738.38;10205844;28;20160;-49
2023/03/03 19:09:44;;;;;;;30.52;19.35;;;;;;;6.92;86.91;97741.88;10201607;28;20110;-51
2023/03/03 19:14:47;;;;;;;39.08;25.73;;;;;;;6.90;86.94;97743.56;10203205;28;20113;-51
2023/03/03 19:20:08;;;;;;;41.97;27.67;;;;;;;6.82;86.88;97752.09;10200357;28;20126;-51
2023/03/03 19:25:07;;;;;;;44.80;31.02;;;;;;;6.61;87.03;97752.66;10202728;28;20109;-49
2023/03/03 19:30:28;;;;;;;35.90;22.17;;;;;;;6.58;87.19;97743.97;10213229;28;20038;-50
2023/03/03 19:36:12;;;;;;;24.08;15.77;;;;;;;6.63;87.65;97757.81;10204513;28;20512;-50
2023/03/03 19:41:17;;;;;;;33.28;22.08;;;;;;;6.55;87.72;97762.00;10213725;28;20138;-49
2023/03/03 19:46:22;;;;;;;32.88;23.80;;;;;;;6.48;88.07;97762.75;10206342;28;20054;-50
2023/03/03 19:51:39;;;;;;;40.20;26.15;;;;;;;6.20;88.49;97708.19;10227649;28;20272;-50
2023/03/03 19:56:41;;;;;;;32.90;21.45;;;;;;;6.53;89.59;97761.09;10211654;28;20153;-50
2023/03/03 20:01:45;;;;;;;32.75;22.60;;;;;;;6.50;89.71;97766.22;10193544;28;20094;-49
2023/03/03 20:06:51;;;;;;;40.38;26.10;;;;;;;6.35;89.97;97759.09;10203808;28;20085;-50
2023/03/03 20:12:06;;;;;;;31.70;21.10;;;;;;;6.26;90.50;97767.56;10207633;28;20517;-50
2023/03/03 20:17:35;;;;;;;53.92;35.90;;;;;;;6.08;91.81;97755.25;10204235;28;20126;-49
2023/03/03 20:23:04;;;;;;;40.40;24.35;;;;;;;6.09;92.67;97763.84;10222807;28;20058;-50
2023/03/03 20:28:31;;;;;;;37.10;24.30;;;;;;;6.10;92.88;97755.28;10217939;28;21006;-50
2023/03/03 20:33:36;;;;;;;43.15;27.63;;;;;;;6.08;92.99;97750.09;10204357;28;20050;-51
2023/03/03 20:38:50;;;;;;;43.80;28.80;;;;;;;6.11;92.39;97747.56;10214810;28;20062;-49
2023/03/03 20:44:03;;;;;;;43.78;29.10;;;;;;;6.16;92.72;97738.22;10219261;28;20062;-49
2023/03/03 20:49:33;;;;;;;36.28;23.20;;;;;;;6.27;92.03;97737.50;10156269;28;20071;-50
2023/03/03 20:54:47;;;;;;;42.20;28.80;;;;;;;6.24;92.21;97737.47;10214761;28;20208;-49
2023/03/03 21:00:05;;;;;;;40.40;28.77;;;;;;;6.32;91.57;97725.56;10203686;28;20139;-51
2023/03/03 21:05:15;;;;;;;51.35;33.80;;;;;;;6.29;90.55;97710.91;10202755;28;20057;-51
2023/03/03 21:10:22;;;;;;;;;;;;;;;6.43;90.68;97720.56;10204465;28;20063;-49
2023/03/03 21:15:28;;;;;;;57.38;36.83;;;;;;;6.45;90.73;97693.97;10208398;28;20004;-49
2023/03/03 21:20:34;;;;;;;62.15;38.10;;;;;;;6.45;91.51;97721.47;10205816;28;20118;-50
2023/03/03 21:26:05;;;;;;;53.47;35.10;;;;;;;6.31;91.04;97716.97;10216062;28;20070;-51
2023/03/03 21:31:13;;;;;;;38.95;24.20;;;;;;;5.97;91.15;97659.75;10220260;28;20072;-48
2023/03/03 21:36:39;;;;;;;41.72;25.50;;;;;;;6.22;91.62;97721.97;10202590;28;20122;-51
2023/03/03 21:42:05;;;;;;;463.75;239.55;;;;;;;6.26;91.97;97725.44;10209594;28;20424;-51
2023/03/03 21:47:06;;;;;;;111.78;62.47;;;;;;;6.32;92.27;97733.28;10202821;28;20066;-49
2023/03/03 21:52:05;;;;;;;44.10;26.35;;;;;;;6.30;92.29;97702.31;10210803;28;20162;-51
2023/03/03 21:57:04;;;;;;;94.85;58.88;;;;;;;6.31;91.94;97739.28;10201227;28;20501;-50
2023/03/03 22:02:03;;;;;;;55.00;35.28;;;;;;;6.27;92.18;97740.09;10200746;28;20729;-48
2023/03/03 22:07:02;;;;;;;39.88;24.20;;;;;;;6.34;91.96;97737.63;10200037;28;20133;-49
2023/03/03 22:12:02;;;;;;;42.47;27.63;;;;;;;6.40;91.50;97730.00;10208141;28;20049;-49
2023/03/03 22:17:01;;;;;;;28.45;17.95;;;;;;;6.44;91.02;97723.16;10201309;28;20062;-51
2023/03/03 22:22:00;;;;;;;32.75;20.55;;;;;;;6.47;90.34;97722.31;10210485;28;20559;-50
2023/03/03 22:26:59;;;;;;;35.28;21.95;;;;;;;6.42;89.88;97719.69;10213276;28;20560;-50
2023/03/03 22:31:57;;;;;;;36.97;21.88;;;;;;;6.32;90.61;97723.84;10208355;28;20504;-48
2023/03/03 22:36:56;;;;;;;46.78;28.83;;;;;;;6.17;90.25;97710.72;10200373;28;20157;-48
2023/03/03 22:41:55;;;;;;;41.58;27.35;;;;;;;6.10;91.41;97737.25;10209392;28;20026;-50
2023/03/03 22:46:54;;;;;;;34.63;21.88;;;;;;;6.19;91.04;97742.53;10199503;28;20133;-49
2023/03/03 22:51:53;;;;;;;38.50;22.83;;;;;;;6.24;90.81;97746.06;10206928;28;20060;-51
2023/03/03 22:56:52;;;;;;;;;;;;;;;6.26;91.94;97739.22;10199865;28;20065;-48
2023/03/03 23:01:51;;;;;;;43.70;27.05;;;;;;;6.28;91.83;97747.84;10208205;28;19957;-49
2023/03/03 23:06:50;;;;;;;41.45;26.40;;;;;;;6.35;91.23;97731.63;10203824;28;20032;-50
2023/03/03 23:11:49;;;;;;;44.65;27.85;;;;;;;6.43;91.29;97736.91;10205535;28;20342;-48
2023/03/03 23:16:48;;;;;;;47.20;28.67;;;;;;;6.49;91.76;97729.28;10203269;28;20468;-48
2023/03/03 23:21:47;;;;;;;41.53;25.38;;;;;;;6.49;91.06;97733.53;10209599;28;20043;-50
2023/03/03 23:26:46;;;;;;;40.25;25.17;;;;;;;6.52;91.34;97736.19;10204905;28;20039;-48
2023/03/03 23:31:45;;;;;;;41.58;26.27;;;;;;;6.57;91.18;97742.25;10210356;28;20057;-50
2023/03/03 23:36:44;;;;;;;41.80;26.65;;;;;;;6.60;90.38;97744.88;10213459;28;20113;-50
2023/03/03 23:41:44;;;;;;;47.25;31.85;;;;;;;6.60;91.22;97739.72;10210000;28;20030;-51